Airfield :
LOGIN :

Register | Disclaimer

   EN    FR    IT 

 










Legend :    VFR   Marginal VFR   IFR   Intensive IFR   Very Intensive IFR
Visi :
Ceiling :
>= 8 km
>= 3000ft
5 to 8 km
1000 to 3000 ft
1500m to 5 km
500 to 1000 ft
800 to 1500m
200 to 500 ft
< 800m
< 200 ft
Symbols :   Thunderstorms  Fog  Heavy snow  Heavy precipitations  Wind > 20 kt
SIGMETs :     Misc.  Thunderstorms  Icing  Turbulence  Mountain Waves  Volcanic Ashes






- Airport Elevation : 436 ft
- IATA code : BTS


LZIB - Bratislava

CURRENT METAR :
  • 200230Z 28006KT 9999 FEW005 BKN029 02/00 Q1040 R13/290195

EXPIRED METARs :
  • 200200Z 28005KT 9999 FEW005 SCT023 BKN035 02/00 Q1039 R13/290195
  • 200130Z 28007KT 9999 -SN FEW005 BKN023 02/00 Q1039 R13/290195
  • 200100Z 29006KT 9999 -SN FEW005 BKN022 BKN048 02/00 Q1039 R13/290195
  • 200030Z 30005KT 9999 -SNRA FEW005 BKN020 OVC049 02/00 Q1039 R13/290195
  • 200000Z 32003KT 9999 -SNRA FEW005 BKN022 OVC049 03/00 Q1038 R13/290195

TAF TAF LZIB
Valid from the 20 at 00:00 until the 21 at 00:00 UTC


192300Z 2000/2100 32008KT 9999 SCT013 BKN020
TEMPO 2000/2003 -RASN SCT005 OVC013
PROB30
TEMPO 2003/2008 6000 BKN004
BECMG 2012/2014 SCT030
BECMG 2020/2022 VRB02KT 2500 BCFG BR SCT001
TEMPO 2022/2100 0600 FZFG BKN001



MET'MAP, your aeronautical weather chart ! - Copyright ORBIFLY December 2007 - Disclaimer

ORBIFLY MET'MAP TEAM :

Programming & Development : Alexandra Zaïnal
Concept & original design : Baudouin d'Aumeries
Assistance for programming : Marc-Olivier Méhu
Technical & hardware support : Manuel Goepfert

Contact : metmap@orbifly.com




SOURCES & CREDITS :

   NOAA